Ellisville, Missouri
Current Conditions -  °F | °C
As of 9:54 PM on Thursday 18 Dec 2014 (Local Time) from KSUS Reporting Station
Overcast Overcast  
Wind Chill: 33°   Ceiling: 2800
Heat Index: 33°   Visibility: 10mi
Dew Point: 27°   Wind: 3mph
Humidity: 78%   Direction: 60°ENE
Pressure: 30.28"   Gusts: NA
Location:  38.5691°N, 90.5462°W
Report Text: KSUS 190354Z 06003KT 10SM FEW018 OVC028 01/M03 A3028 RMK AO2 SLP262 T00061028
Loading
Personal Weather Stations






























Interactive Weather Map New forecast layout! Learn more

10-Day Weather Forecast

Advertisements
Track Severe Weather on mobile